KCAR

Caribou Municipal Airport

Caribou, Maine, USA
METAR KCAR 181454Z AUTO 25014KT 10SM OVC080 M06/M11 A2978 RMK AO2 SLP098 T10611111 58004
Observed Flight Rules
Jan-18 @ 14:54 UTC (35 minutes ago) Visual Flight Rules
Wind Visibility Clouds
250° at 14 knots 10 miles
  • Overcast at 8,000' AGL
Temperatures Readings
Current -6°C / 21°F
Dewpoint -11°C / 12°F
Humidity 68%
Altimeter 29.78" Hg
Pressure 1009.8 hPa
Elevation 191
METAR KCAR 181454Z AUTO 25014KT 10SM OVC080 M06/M11 A2978 RMK AO2 SLP098 T10611111 58004
Observed Flight Rules
Jan-18 @ 14:54 UTC
(35 minutes ago)
VFR
Wind Visibility
250° at 14 knots 10 miles
Clouds
  • Overcast at 8,000' AGL
Temperature Dewpoint
-6°C / 21°F -11°C / 12°F
Humidity Altimeter Pressure
68% 29.78" Hg 1009.8 hPa